sensor_id;sensor_type;location;lat;lon;timestamp;temperature;humidity
20977;DHT22;10647;51.016;3.720;2022-10-22T00:00:23;17.00;99.90
20977;DHT22;10647;51.016;3.720;2022-10-22T00:02:50;17.00;99.90
20977;DHT22;10647;51.016;3.720;2022-10-22T00:05:18;17.00;99.90
20977;DHT22;10647;51.016;3.720;2022-10-22T00:07:46;17.00;99.90
20977;DHT22;10647;51.016;3.720;2022-10-22T00:10:15;17.00;99.90
20977;DHT22;10647;51.016;3.720;2022-10-22T00:12:44;16.90;99.90
20977;DHT22;10647;51.016;3.720;2022-10-22T00:15:12;16.90;99.90
20977;DHT22;10647;51.016;3.720;2022-10-22T00:17:40;17.00;99.90
20977;DHT22;10647;51.016;3.720;2022-10-22T00:20:08;17.00;99.90
20977;DHT22;10647;51.016;3.720;2022-10-22T00:22:36;17.00;99.90
20977;DHT22;10647;51.016;3.720;2022-10-22T00:25:03;17.00;99.90
20977;DHT22;10647;51.016;3.720;2022-10-22T00:27:31;17.00;99.90
20977;DHT22;10647;51.016;3.720;2022-10-22T00:29:58;17.00;99.90
20977;DHT22;10647;51.016;3.720;2022-10-22T00:32:26;17.00;99.90
20977;DHT22;10647;51.016;3.720;2022-10-22T00:34:55;16.90;99.90
20977;DHT22;10647;51.016;3.720;2022-10-22T00:37:22;16.90;99.90
20977;DHT22;10647;51.016;3.720;2022-10-22T00:39:50;16.90;99.90
20977;DHT22;10647;51.016;3.720;2022-10-22T00:42:21;16.90;99.90
20977;DHT22;10647;51.016;3.720;2022-10-22T00:45:14;16.90;99.90
20977;DHT22;10647;51.016;3.720;2022-10-22T00:47:55;16.90;99.90
20977;DHT22;10647;51.016;3.720;2022-10-22T00:51:26;16.80;99.90
20977;DHT22;10647;51.016;3.720;2022-10-22T00:53:18;16.80;99.90
20977;DHT22;10647;51.016;3.720;2022-10-22T00:55:45;16.80;99.90
20977;DHT22;10647;51.016;3.720;2022-10-22T00:58:14;16.70;99.90
20977;DHT22;10647;51.016;3.720;2022-10-22T01:00:42;16.70;99.90
20977;DHT22;10647;51.016;3.720;2022-10-22T01:03:13;16.70;99.90
20977;DHT22;10647;51.016;3.720;2022-10-22T01:05:58;16.70;99.90
20977;DHT22;10647;51.016;3.720;2022-10-22T01:20:05;16.60;99.90
20977;DHT22;10647;51.016;3.720;2022-10-22T01:25:30;16.50;99.90
20977;DHT22;10647;51.016;3.720;2022-10-22T01:30:40;16.50;99.90
20977;DHT22;10647;51.016;3.720;2022-10-22T01:33:12;16.50;99.90
20977;DHT22;10647;51.016;3.720;2022-10-22T01:35:42;16.50;99.90
20977;DHT22;10647;51.016;3.720;2022-10-22T01:38:16;16.50;99.90
20977;DHT22;10647;51.016;3.720;2022-10-22T01:43:39;16.50;99.90
20977;DHT22;10647;51.016;3.720;2022-10-22T01:46:09;16.50;99.90
20977;DHT22;10647;51.016;3.720;2022-10-22T01:48:47;16.50;99.90
20977;DHT22;10647;51.016;3.720;2022-10-22T01:54:43;16.50;99.90
20977;DHT22;10647;51.016;3.720;2022-10-22T02:00:07;16.50;99.90
20977;DHT22;10647;51.016;3.720;2022-10-22T02:03:01;16.40;99.90
20977;DHT22;10647;51.016;3.720;2022-10-22T02:05:30;16.40;99.90
20977;DHT22;10647;51.016;3.720;2022-10-22T02:08:03;16.40;99.90
20977;DHT22;10647;51.016;3.720;2022-10-22T02:10:31;16.40;99.90
20977;DHT22;10647;51.016;3.720;2022-10-22T02:13:00;16.40;99.90
20977;DHT22;10647;51.016;3.720;2022-10-22T02:15:30;16.40;99.90
20977;DHT22;10647;51.016;3.720;2022-10-22T02:18:00;16.40;99.90
20977;DHT22;10647;51.016;3.720;2022-10-22T02:20:33;16.50;99.90
20977;DHT22;10647;51.016;3.720;2022-10-22T02:23:01;16.50;99.90
20977;DHT22;10647;51.016;3.720;2022-10-22T02:25:35;16.50;99.90
20977;DHT22;10647;51.016;3.720;2022-10-22T02:28:23;16.50;99.90
20977;DHT22;10647;51.016;3.720;2022-10-22T02:31:22;16.40;99.90
20977;DHT22;10647;51.016;3.720;2022-10-22T02:36:42;16.50;99.90
20977;DHT22;10647;51.016;3.720;2022-10-22T02:39:12;16.50;99.90
20977;DHT22;10647;51.016;3.720;2022-10-22T02:41:43;16.50;99.90
20977;DHT22;10647;51.016;3.720;2022-10-22T02:44:11;16.60;99.90
20977;DHT22;10647;51.016;3.720;2022-10-22T02:46:39;16.70;99.90
20977;DHT22;10647;51.016;3.720;2022-10-22T02:49:09;16.80;99.90
20977;DHT22;10647;51.016;3.720;2022-10-22T02:51:42;16.80;99.90
20977;DHT22;10647;51.016;3.720;2022-10-22T02:54:11;16.80;99.90
20977;DHT22;10647;51.016;3.720;2022-10-22T02:56:38;16.90;99.90
20977;DHT22;10647;51.016;3.720;2022-10-22T02:59:06;17.00;99.90
20977;DHT22;10647;51.016;3.720;2022-10-22T03:01:34;17.00;99.90
20977;DHT22;10647;51.016;3.720;2022-10-22T03:04:02;17.00;99.90
20977;DHT22;10647;51.016;3.720;2022-10-22T03:06:30;17.00;99.90
20977;DHT22;10647;51.016;3.720;2022-10-22T03:08:57;17.00;99.90
20977;DHT22;10647;51.016;3.720;2022-10-22T03:11:25;17.00;99.90
20977;DHT22;10647;51.016;3.720;2022-10-22T03:13:54;17.00;99.90
20977;DHT22;10647;51.016;3.720;2022-10-22T03:16:22;17.00;99.90
20977;DHT22;10647;51.016;3.720;2022-10-22T03:18:49;17.10;99.90
20977;DHT22;10647;51.016;3.720;2022-10-22T03:23:51;17.10;99.90
20977;DHT22;10647;51.016;3.720;2022-10-22T03:26:20;17.10;99.90
20977;DHT22;10647;51.016;3.720;2022-10-22T03:28:48;17.10;99.90
20977;DHT22;10647;51.016;3.720;2022-10-22T03:31:16;17.20;99.90
20977;DHT22;10647;51.016;3.720;2022-10-22T03:33:43;17.20;99.90
20977;DHT22;10647;51.016;3.720;2022-10-22T03:36:11;17.20;99.90
20977;DHT22;10647;51.016;3.720;2022-10-22T03:38:39;17.20;99.90
20977;DHT22;10647;51.016;3.720;2022-10-22T03:41:07;17.20;99.90
20977;DHT22;10647;51.016;3.720;2022-10-22T03:43:36;17.20;99.90
20977;DHT22;10647;51.016;3.720;2022-10-22T03:46:04;17.20;99.90
20977;DHT22;10647;51.016;3.720;2022-10-22T03:48:31;17.20;99.90
20977;DHT22;10647;51.016;3.720;2022-10-22T03:50:59;17.10;99.90
20977;DHT22;10647;51.016;3.720;2022-10-22T03:53:26;17.10;99.90
20977;DHT22;10647;51.016;3.720;2022-10-22T03:55:55;17.10;99.90
20977;DHT22;10647;51.016;3.720;2022-10-22T03:58:22;17.10;99.90
20977;DHT22;10647;51.016;3.720;2022-10-22T04:00:50;17.10;99.90
20977;DHT22;10647;51.016;3.720;2022-10-22T04:03:19;17.00;99.90
20977;DHT22;10647;51.016;3.720;2022-10-22T04:05:47;16.90;99.90
20977;DHT22;10647;51.016;3.720;2022-10-22T04:08:14;16.90;99.90
20977;DHT22;10647;51.016;3.720;2022-10-22T04:10:51;16.80;99.90
20977;DHT22;10647;51.016;3.720;2022-10-22T04:13:18;16.70;99.90
20977;DHT22;10647;51.016;3.720;2022-10-22T04:15:46;16.70;99.90
20977;DHT22;10647;51.016;3.720;2022-10-22T04:18:13;16.60;99.90
20977;DHT22;10647;51.016;3.720;2022-10-22T04:20:41;16.60;99.90
20977;DHT22;10647;51.016;3.720;2022-10-22T04:23:08;16.60;99.90
20977;DHT22;10647;51.016;3.720;2022-10-22T04:25:36;16.50;99.90
20977;DHT22;10647;51.016;3.720;2022-10-22T04:28:05;16.50;99.90
20977;DHT22;10647;51.016;3.720;2022-10-22T04:30:34;16.50;99.90
20977;DHT22;10647;51.016;3.720;2022-10-22T04:33:03;16.50;99.90
20977;DHT22;10647;51.016;3.720;2022-10-22T04:35:30;16.50;99.90
20977;DHT22;10647;51.016;3.720;2022-10-22T04:38:17;16.40;99.90
20977;DHT22;10647;51.016;3.720;2022-10-22T04:40:45;16.40;99.90
20977;DHT22;10647;51.016;3.720;2022-10-22T04:43:12;16.40;99.90
20977;DHT22;10647;51.016;3.720;2022-10-22T04:45:40;16.40;99.90
20977;DHT22;10647;51.016;3.720;2022-10-22T04:48:07;16.40;99.90
20977;DHT22;10647;51.016;3.720;2022-10-22T04:50:36;16.40;99.90
20977;DHT22;10647;51.016;3.720;2022-10-22T04:53:03;16.30;99.90
20977;DHT22;10647;51.016;3.720;2022-10-22T04:55:31;16.30;99.90
20977;DHT22;10647;51.016;3.720;2022-10-22T04:57:58;16.30;99.90
20977;DHT22;10647;51.016;3.720;2022-10-22T05:00:32;16.20;99.90
20977;DHT22;10647;51.016;3.720;2022-10-22T05:03:00;16.20;99.90
20977;DHT22;10647;51.016;3.720;2022-10-22T05:05:27;16.20;99.90
20977;DHT22;10647;51.016;3.720;2022-10-22T05:08:00;16.20;99.90
20977;DHT22;10647;51.016;3.720;2022-10-22T05:10:28;16.20;99.90
20977;DHT22;10647;51.016;3.720;2022-10-22T05:12:55;16.30;99.90
20977;DHT22;10647;51.016;3.720;2022-10-22T05:15:26;16.40;99.90
20977;DHT22;10647;51.016;3.720;2022-10-22T05:17:53;16.40;99.90
20977;DHT22;10647;51.016;3.720;2022-10-22T05:20:21;16.30;99.90
20977;DHT22;10647;51.016;3.720;2022-10-22T05:22:48;16.30;99.90
20977;DHT22;10647;51.016;3.720;2022-10-22T05:25:17;16.40;99.90
20977;DHT22;10647;51.016;3.720;2022-10-22T05:27:49;16.40;99.90
20977;DHT22;10647;51.016;3.720;2022-10-22T05:30:19;16.50;99.90
20977;DHT22;10647;51.016;3.720;2022-10-22T05:32:52;16.60;99.90
20977;DHT22;10647;51.016;3.720;2022-10-22T05:35:26;16.70;99.90
20977;DHT22;10647;51.016;3.720;2022-10-22T05:37:53;16.80;99.90
20977;DHT22;10647;51.016;3.720;2022-10-22T05:40:21;16.80;99.90
20977;DHT22;10647;51.016;3.720;2022-10-22T05:42:50;16.80;99.90
20977;DHT22;10647;51.016;3.720;2022-10-22T05:45:19;16.90;99.90
20977;DHT22;10647;51.016;3.720;2022-10-22T05:47:52;16.90;99.90
20977;DHT22;10647;51.016;3.720;2022-10-22T05:50:19;16.90;99.90
20977;DHT22;10647;51.016;3.720;2022-10-22T05:52:47;16.90;99.90
20977;DHT22;10647;51.016;3.720;2022-10-22T05:55:14;17.00;99.90
20977;DHT22;10647;51.016;3.720;2022-10-22T05:57:42;17.00;99.90
20977;DHT22;10647;51.016;3.720;2022-10-22T06:00:11;17.00;99.90
20977;DHT22;10647;51.016;3.720;2022-10-22T06:02:39;17.10;99.90
20977;DHT22;10647;51.016;3.720;2022-10-22T06:05:06;17.00;99.90
20977;DHT22;10647;51.016;3.720;2022-10-22T06:07:35;17.10;99.90
20977;DHT22;10647;51.016;3.720;2022-10-22T06:10:03;17.20;99.90
20977;DHT22;10647;51.016;3.720;2022-10-22T06:12:31;17.20;99.90
20977;DHT22;10647;51.016;3.720;2022-10-22T06:15:18;17.20;99.90
20977;DHT22;10647;51.016;3.720;2022-10-22T06:17:47;17.20;99.90
20977;DHT22;10647;51.016;3.720;2022-10-22T06:20:14;17.20;99.90
20977;DHT22;10647;51.016;3.720;2022-10-22T06:22:42;17.20;99.90
20977;DHT22;10647;51.016;3.720;2022-10-22T06:25:09;17.20;99.90
20977;DHT22;10647;51.016;3.720;2022-10-22T06:27:38;17.20;99.90
20977;DHT22;10647;51.016;3.720;2022-10-22T06:30:07;17.20;99.90
20977;DHT22;10647;51.016;3.720;2022-10-22T06:32:34;17.20;99.90
20977;DHT22;10647;51.016;3.720;2022-10-22T06:35:02;17.30;99.90
20977;DHT22;10647;51.016;3.720;2022-10-22T06:37:29;17.30;99.90
20977;DHT22;10647;51.016;3.720;2022-10-22T06:40:03;17.40;99.90
20977;DHT22;10647;51.016;3.720;2022-10-22T06:42:30;17.40;99.90
20977;DHT22;10647;51.016;3.720;2022-10-22T06:45:00;17.40;99.90
20977;DHT22;10647;51.016;3.720;2022-10-22T06:47:28;17.40;99.90
20977;DHT22;10647;51.016;3.720;2022-10-22T06:49:57;17.40;99.90
20977;DHT22;10647;51.016;3.720;2022-10-22T06:52:25;17.40;99.90
20977;DHT22;10647;51.016;3.720;2022-10-22T06:54:52;17.30;99.90
20977;DHT22;10647;51.016;3.720;2022-10-22T06:57:20;17.30;99.90
20977;DHT22;10647;51.016;3.720;2022-10-22T06:59:48;17.50;99.90
20977;DHT22;10647;51.016;3.720;2022-10-22T07:02:16;17.50;99.90
20977;DHT22;10647;51.016;3.720;2022-10-22T07:04:44;17.60;99.90
20977;DHT22;10647;51.016;3.720;2022-10-22T07:07:12;17.80;99.90
20977;DHT22;10647;51.016;3.720;2022-10-22T07:09:41;17.80;99.90
20977;DHT22;10647;51.016;3.720;2022-10-22T07:12:14;17.80;99.90
20977;DHT22;10647;51.016;3.720;2022-10-22T07:14:41;17.80;99.90
20977;DHT22;10647;51.016;3.720;2022-10-22T07:17:09;17.60;99.90
20977;DHT22;10647;51.016;3.720;2022-10-22T07:19:36;17.50;99.90
20977;DHT22;10647;51.016;3.720;2022-10-22T07:22:04;17.40;99.90
20977;DHT22;10647;51.016;3.720;2022-10-22T07:24:32;17.40;99.90
20977;DHT22;10647;51.016;3.720;2022-10-22T07:27:00;17.40;99.90
20977;DHT22;10647;51.016;3.720;2022-10-22T07:29:27;17.50;99.90
20977;DHT22;10647;51.016;3.720;2022-10-22T07:31:55;17.40;99.90
20977;DHT22;10647;51.016;3.720;2022-10-22T07:34:22;17.50;99.90
20977;DHT22;10647;51.016;3.720;2022-10-22T07:36:56;17.50;99.90
20977;DHT22;10647;51.016;3.720;2022-10-22T07:39:23;17.60;99.90
20977;DHT22;10647;51.016;3.720;2022-10-22T07:41:51;17.80;99.90
20977;DHT22;10647;51.016;3.720;2022-10-22T07:44:19;18.00;99.90
20977;DHT22;10647;51.016;3.720;2022-10-22T07:46:46;18.20;99.90
20977;DHT22;10647;51.016;3.720;2022-10-22T07:49:14;18.30;99.90
20977;DHT22;10647;51.016;3.720;2022-10-22T07:51:41;18.30;99.90
20977;DHT22;10647;51.016;3.720;2022-10-22T07:54:09;18.40;99.90
20977;DHT22;10647;51.016;3.720;2022-10-22T07:56:36;18.30;99.90
20977;DHT22;10647;51.016;3.720;2022-10-22T07:59:04;18.30;99.90
20977;DHT22;10647;51.016;3.720;2022-10-22T08:01:31;18.30;99.90
20977;DHT22;10647;51.016;3.720;2022-10-22T08:03:59;18.20;99.90
20977;DHT22;10647;51.016;3.720;2022-10-22T08:06:26;18.20;99.90
20977;DHT22;10647;51.016;3.720;2022-10-22T08:08:54;18.20;99.90
20977;DHT22;10647;51.016;3.720;2022-10-22T08:11:21;18.20;99.90
20977;DHT22;10647;51.016;3.720;2022-10-22T08:13:50;18.20;99.90
20977;DHT22;10647;51.016;3.720;2022-10-22T08:16:17;18.20;99.90
20977;DHT22;10647;51.016;3.720;2022-10-22T08:18:46;18.20;99.90
20977;DHT22;10647;51.016;3.720;2022-10-22T08:21:13;18.30;99.90
20977;DHT22;10647;51.016;3.720;2022-10-22T08:23:42;18.30;99.90
20977;DHT22;10647;51.016;3.720;2022-10-22T08:26:10;18.30;99.90
20977;DHT22;10647;51.016;3.720;2022-10-22T08:28:39;18.30;99.90
20977;DHT22;10647;51.016;3.720;2022-10-22T08:31:07;18.40;99.90
20977;DHT22;10647;51.016;3.720;2022-10-22T08:33:34;18.60;99.90
20977;DHT22;10647;51.016;3.720;2022-10-22T08:36:04;18.90;99.90
20977;DHT22;10647;51.016;3.720;2022-10-22T08:38:32;19.10;99.90
20977;DHT22;10647;51.016;3.720;2022-10-22T08:41:05;19.10;99.90
20977;DHT22;10647;51.016;3.720;2022-10-22T08:46:51;19.00;99.90
20977;DHT22;10647;51.016;3.720;2022-10-22T08:48:56;19.10;99.90
20977;DHT22;10647;51.016;3.720;2022-10-22T08:51:26;19.20;99.90
20977;DHT22;10647;51.016;3.720;2022-10-22T08:54:16;19.20;99.90
20977;DHT22;10647;51.016;3.720;2022-10-22T08:56:46;19.50;99.90
20977;DHT22;10647;51.016;3.720;2022-10-22T08:59:19;19.60;99.90
20977;DHT22;10647;51.016;3.720;2022-10-22T09:02:07;19.60;99.90
20977;DHT22;10647;51.016;3.720;2022-10-22T09:04:44;19.50;99.90
20977;DHT22;10647;51.016;3.720;2022-10-22T09:07:08;19.50;99.90
20977;DHT22;10647;51.016;3.720;2022-10-22T09:09:41;19.50;99.90
20977;DHT22;10647;51.016;3.720;2022-10-22T09:12:09;19.80;99.90
20977;DHT22;10647;51.016;3.720;2022-10-22T09:14:42;20.20;99.90
20977;DHT22;10647;51.016;3.720;2022-10-22T09:17:21;20.30;99.90
20977;DHT22;10647;51.016;3.720;2022-10-22T09:20:02;20.40;99.90
20977;DHT22;10647;51.016;3.720;2022-10-22T09:22:42;20.40;99.90
20977;DHT22;10647;51.016;3.720;2022-10-22T09:25:27;20.40;99.90
20977;DHT22;10647;51.016;3.720;2022-10-22T09:27:55;20.50;99.90
20977;DHT22;10647;51.016;3.720;2022-10-22T09:30:29;20.50;99.90
20977;DHT22;10647;51.016;3.720;2022-10-22T09:33:06;20.60;99.90
20977;DHT22;10647;51.016;3.720;2022-10-22T09:35:32;20.50;99.90
20977;DHT22;10647;51.016;3.720;2022-10-22T09:38:06;20.50;99.90
20977;DHT22;10647;51.016;3.720;2022-10-22T09:40:47;20.60;99.90
20977;DHT22;10647;51.016;3.720;2022-10-22T09:43:15;20.60;99.90
20977;DHT22;10647;51.016;3.720;2022-10-22T09:45:44;20.60;99.90
20977;DHT22;10647;51.016;3.720;2022-10-22T09:48:20;20.60;99.90
20977;DHT22;10647;51.016;3.720;2022-10-22T09:50:54;20.80;99.90
20977;DHT22;10647;51.016;3.720;2022-10-22T09:56:25;20.60;99.90
20977;DHT22;10647;51.016;3.720;2022-10-22T09:58:55;20.70;99.90
20977;DHT22;10647;51.016;3.720;2022-10-22T10:01:31;20.70;99.90
20977;DHT22;10647;51.016;3.720;2022-10-22T10:04:09;20.70;99.90
20977;DHT22;10647;51.016;3.720;2022-10-22T10:06:33;20.90;99.90
20977;DHT22;10647;51.016;3.720;2022-10-22T10:09:04;21.20;99.90
20977;DHT22;10647;51.016;3.720;2022-10-22T10:11:58;21.60;99.90
20977;DHT22;10647;51.016;3.720;2022-10-22T10:14:39;21.90;99.90
20977;DHT22;10647;51.016;3.720;2022-10-22T10:17:35;21.80;99.90
20977;DHT22;10647;51.016;3.720;2022-10-22T10:23:01;21.60;99.90
20977;DHT22;10647;51.016;3.720;2022-10-22T10:31:37;21.60;99.90
20977;DHT22;10647;51.016;3.720;2022-10-22T10:36:52;22.00;99.90
20977;DHT22;10647;51.016;3.720;2022-10-22T10:39:24;22.30;99.90
20977;DHT22;10647;51.016;3.720;2022-10-22T10:42:20;22.50;99.90
20977;DHT22;10647;51.016;3.720;2022-10-22T10:50:25;22.90;99.90
20977;DHT22;10647;51.016;3.720;2022-10-22T10:53:23;23.40;99.90
20977;DHT22;10647;51.016;3.720;2022-10-22T10:55:53;23.50;99.90
20977;DHT22;10647;51.016;3.720;2022-10-22T10:58:33;23.70;99.90
20977;DHT22;10647;51.016;3.720;2022-10-22T11:06:24;24.00;99.90
20977;DHT22;10647;51.016;3.720;2022-10-22T11:08:56;23.80;99.90
20977;DHT22;10647;51.016;3.720;2022-10-22T11:15:02;24.10;99.90
20977;DHT22;10647;51.016;3.720;2022-10-22T11:17:07;24.20;99.90
20977;DHT22;10647;51.016;3.720;2022-10-22T11:22:21;23.80;99.90
20977;DHT22;10647;51.016;3.720;2022-10-22T11:24:51;23.70;99.90
20977;DHT22;10647;51.016;3.720;2022-10-22T11:27:39;23.50;99.90
20977;DHT22;10647;51.016;3.720;2022-10-22T11:30:21;23.20;99.90
20977;DHT22;10647;51.016;3.720;2022-10-22T11:32:55;22.80;99.90
20977;DHT22;10647;51.016;3.720;2022-10-22T11:35:26;22.80;99.90
20977;DHT22;10647;51.016;3.720;2022-10-22T11:37:55;22.80;99.90
20977;DHT22;10647;51.016;3.720;2022-10-22T11:40:47;23.20;99.90
20977;DHT22;10647;51.016;3.720;2022-10-22T11:43:25;23.60;99.90
20977;DHT22;10647;51.016;3.720;2022-10-22T11:46:07;23.70;99.90
20977;DHT22;10647;51.016;3.720;2022-10-22T11:48:34;23.50;99.90
20977;DHT22;10647;51.016;3.720;2022-10-22T11:51:01;23.70;99.90
20977;DHT22;10647;51.016;3.720;2022-10-22T11:53:34;23.80;99.90
20977;DHT22;10647;51.016;3.720;2022-10-22T11:58:41;23.70;99.90
20977;DHT22;10647;51.016;3.720;2022-10-22T12:03:51;23.50;99.90
20977;DHT22;10647;51.016;3.720;2022-10-22T12:06:24;23.60;99.90
20977;DHT22;10647;51.016;3.720;2022-10-22T12:11:46;24.20;99.90
20977;DHT22;10647;51.016;3.720;2022-10-22T12:14:33;24.60;99.90
20977;DHT22;10647;51.016;3.720;2022-10-22T12:19:42;24.70;99.90
20977;DHT22;10647;51.016;3.720;2022-10-22T12:22:22;24.70;99.90
20977;DHT22;10647;51.016;3.720;2022-10-22T12:24:51;24.60;99.90
20977;DHT22;10647;51.016;3.720;2022-10-22T12:27:32;24.50;99.90
20977;DHT22;10647;51.016;3.720;2022-10-22T12:29:58;24.50;99.90
20977;DHT22;10647;51.016;3.720;2022-10-22T12:32:34;24.30;99.90
20977;DHT22;10647;51.016;3.720;2022-10-22T12:35:17;24.00;99.90
20977;DHT22;10647;51.016;3.720;2022-10-22T12:37:47;24.00;99.90
20977;DHT22;10647;51.016;3.720;2022-10-22T12:40:23;23.80;99.90
20977;DHT22;10647;51.016;3.720;2022-10-22T12:42:52;23.70;99.90
20977;DHT22;10647;51.016;3.720;2022-10-22T12:45:20;23.60;99.90
20977;DHT22;10647;51.016;3.720;2022-10-22T12:47:50;23.50;99.90
20977;DHT22;10647;51.016;3.720;2022-10-22T12:50:22;23.80;99.90
20977;DHT22;10647;51.016;3.720;2022-10-22T12:52:49;24.00;99.90
20977;DHT22;10647;51.016;3.720;2022-10-22T12:55:18;24.10;99.90
20977;DHT22;10647;51.016;3.720;2022-10-22T12:57:48;24.80;99.90
20977;DHT22;10647;51.016;3.720;2022-10-22T13:00:24;25.70;99.90
20977;DHT22;10647;51.016;3.720;2022-10-22T13:02:59;25.70;99.90
20977;DHT22;10647;51.016;3.720;2022-10-22T13:05:30;25.30;99.90
20977;DHT22;10647;51.016;3.720;2022-10-22T13:08:11;24.90;99.90
20977;DHT22;10647;51.016;3.720;2022-10-22T13:10:40;24.80;99.90
20977;DHT22;10647;51.016;3.720;2022-10-22T13:13:27;24.60;99.90
20977;DHT22;10647;51.016;3.720;2022-10-22T13:15:39;24.70;99.90
20977;DHT22;10647;51.016;3.720;2022-10-22T13:18:17;26.70;99.90
20977;DHT22;10647;51.016;3.720;2022-10-22T13:20:59;29.40;99.90
20977;DHT22;10647;51.016;3.720;2022-10-22T13:23:34;31.00;99.90
20977;DHT22;10647;51.016;3.720;2022-10-22T13:26:11;31.70;99.90
20977;DHT22;10647;51.016;3.720;2022-10-22T13:28:32;31.70;99.90
20977;DHT22;10647;51.016;3.720;2022-10-22T13:31:35;31.30;99.90
20977;DHT22;10647;51.016;3.720;2022-10-22T13:33:42;31.60;99.90
20977;DHT22;10647;51.016;3.720;2022-10-22T13:36:14;32.00;99.90
20977;DHT22;10647;51.016;3.720;2022-10-22T13:38:43;32.50;99.90
20977;DHT22;10647;51.016;3.720;2022-10-22T13:41:25;32.10;99.90
20977;DHT22;10647;51.016;3.720;2022-10-22T13:43:53;31.90;99.90
20977;DHT22;10647;51.016;3.720;2022-10-22T13:46:22;32.00;99.90
20977;DHT22;10647;51.016;3.720;2022-10-22T13:48:52;31.20;99.90
20977;DHT22;10647;51.016;3.720;2022-10-22T13:51:33;30.00;99.90
20977;DHT22;10647;51.016;3.720;2022-10-22T13:53:52;29.00;99.90
20977;DHT22;10647;51.016;3.720;2022-10-22T13:56:21;28.40;99.90
20977;DHT22;10647;51.016;3.720;2022-10-22T13:58:49;28.30;99.90
20977;DHT22;10647;51.016;3.720;2022-10-22T14:01:19;28.30;99.90
20977;DHT22;10647;51.016;3.720;2022-10-22T14:03:49;28.50;99.90
20977;DHT22;10647;51.016;3.720;2022-10-22T14:06:19;28.20;99.90
20977;DHT22;10647;51.016;3.720;2022-10-22T14:08:54;27.60;99.90
20977;DHT22;10647;51.016;3.720;2022-10-22T14:11:21;27.50;99.90
20977;DHT22;10647;51.016;3.720;2022-10-22T14:13:52;27.10;99.90
20977;DHT22;10647;51.016;3.720;2022-10-22T14:16:25;26.70;99.90
20977;DHT22;10647;51.016;3.720;2022-10-22T14:18:53;26.20;99.90
20977;DHT22;10647;51.016;3.720;2022-10-22T14:21:22;25.80;99.90
20977;DHT22;10647;51.016;3.720;2022-10-22T14:23:49;25.50;99.90
20977;DHT22;10647;51.016;3.720;2022-10-22T14:26:24;25.20;99.90
20977;DHT22;10647;51.016;3.720;2022-10-22T14:28:53;25.00;99.90
20977;DHT22;10647;51.016;3.720;2022-10-22T14:31:21;25.90;99.90
20977;DHT22;10647;51.016;3.720;2022-10-22T14:33:48;26.80;99.90
20977;DHT22;10647;51.016;3.720;2022-10-22T14:36:18;27.80;99.90
20977;DHT22;10647;51.016;3.720;2022-10-22T14:38:46;28.20;99.90
20977;DHT22;10647;51.016;3.720;2022-10-22T14:41:20;28.30;99.90
20977;DHT22;10647;51.016;3.720;2022-10-22T14:43:49;28.10;99.90
20977;DHT22;10647;51.016;3.720;2022-10-22T14:46:18;27.90;99.90
20977;DHT22;10647;51.016;3.720;2022-10-22T14:48:46;27.70;99.90
20977;DHT22;10647;51.016;3.720;2022-10-22T14:51:17;27.60;99.90
20977;DHT22;10647;51.016;3.720;2022-10-22T14:53:44;27.60;99.90
20977;DHT22;10647;51.016;3.720;2022-10-22T14:56:14;27.30;99.90
20977;DHT22;10647;51.016;3.720;2022-10-22T14:58:42;27.20;99.90
20977;DHT22;10647;51.016;3.720;2022-10-22T15:01:11;26.90;99.90
20977;DHT22;10647;51.016;3.720;2022-10-22T15:03:38;26.40;99.90
20977;DHT22;10647;51.016;3.720;2022-10-22T15:06:06;25.90;99.90
20977;DHT22;10647;51.016;3.720;2022-10-22T15:08:34;25.60;99.90
20977;DHT22;10647;51.016;3.720;2022-10-22T15:11:08;25.30;99.90
20977;DHT22;10647;51.016;3.720;2022-10-22T15:13:35;25.00;99.90
20977;DHT22;10647;51.016;3.720;2022-10-22T15:16:07;24.80;99.90
20977;DHT22;10647;51.016;3.720;2022-10-22T15:18:36;24.50;99.90
20977;DHT22;10647;51.016;3.720;2022-10-22T15:21:06;24.40;99.90
20977;DHT22;10647;51.016;3.720;2022-10-22T15:23:35;24.20;99.90
20977;DHT22;10647;51.016;3.720;2022-10-22T15:26:06;24.00;99.90
20977;DHT22;10647;51.016;3.720;2022-10-22T15:28:36;24.00;99.90
20977;DHT22;10647;51.016;3.720;2022-10-22T15:31:04;23.90;99.90
20977;DHT22;10647;51.016;3.720;2022-10-22T15:33:32;23.80;99.90
20977;DHT22;10647;51.016;3.720;2022-10-22T15:36:08;23.70;99.90
20977;DHT22;10647;51.016;3.720;2022-10-22T15:38:36;23.60;99.90
20977;DHT22;10647;51.016;3.720;2022-10-22T15:41:06;23.40;99.90
20977;DHT22;10647;51.016;3.720;2022-10-22T15:43:35;23.30;99.90
20977;DHT22;10647;51.016;3.720;2022-10-22T15:46:15;23.10;99.90
20977;DHT22;10647;51.016;3.720;2022-10-22T15:48:44;23.00;99.90
20977;DHT22;10647;51.016;3.720;2022-10-22T15:51:14;22.80;99.90
20977;DHT22;10647;51.016;3.720;2022-10-22T15:53:42;22.70;99.90
20977;DHT22;10647;51.016;3.720;2022-10-22T15:56:10;22.50;99.90
20977;DHT22;10647;51.016;3.720;2022-10-22T15:58:38;22.40;99.90
20977;DHT22;10647;51.016;3.720;2022-10-22T16:01:11;22.30;99.90
20977;DHT22;10647;51.016;3.720;2022-10-22T16:03:39;22.10;99.90
20977;DHT22;10647;51.016;3.720;2022-10-22T16:06:12;22.00;99.90
20977;DHT22;10647;51.016;3.720;2022-10-22T16:08:41;21.90;99.90
20977;DHT22;10647;51.016;3.720;2022-10-22T16:11:09;21.80;99.90
20977;DHT22;10647;51.016;3.720;2022-10-22T16:13:36;21.60;99.90
20977;DHT22;10647;51.016;3.720;2022-10-22T16:16:06;21.50;99.90
20977;DHT22;10647;51.016;3.720;2022-10-22T16:18:34;21.40;99.90
20977;DHT22;10647;51.016;3.720;2022-10-22T16:21:02;21.30;99.90
20977;DHT22;10647;51.016;3.720;2022-10-22T16:23:30;21.20;99.90
20977;DHT22;10647;51.016;3.720;2022-10-22T16:26:02;21.00;99.90
20977;DHT22;10647;51.016;3.720;2022-10-22T16:28:30;21.00;99.90
20977;DHT22;10647;51.016;3.720;2022-10-22T16:31:05;20.80;99.90
20977;DHT22;10647;51.016;3.720;2022-10-22T16:33:40;20.70;99.90
20977;DHT22;10647;51.016;3.720;2022-10-22T16:36:10;20.60;99.90
20977;DHT22;10647;51.016;3.720;2022-10-22T16:38:39;20.50;99.90
20977;DHT22;10647;51.016;3.720;2022-10-22T16:41:18;20.40;99.90
20977;DHT22;10647;51.016;3.720;2022-10-22T16:43:43;20.30;99.90
20977;DHT22;10647;51.016;3.720;2022-10-22T16:46:14;20.20;99.90
20977;DHT22;10647;51.016;3.720;2022-10-22T16:48:50;20.10;99.90
20977;DHT22;10647;51.016;3.720;2022-10-22T16:51:23;20.00;99.90
20977;DHT22;10647;51.016;3.720;2022-10-22T16:53:53;19.90;99.90
20977;DHT22;10647;51.016;3.720;2022-10-22T16:56:21;19.80;99.90
20977;DHT22;10647;51.016;3.720;2022-10-22T16:58:51;19.80;99.90
20977;DHT22;10647;51.016;3.720;2022-10-22T17:01:21;19.70;99.90
20977;DHT22;10647;51.016;3.720;2022-10-22T17:03:49;19.60;99.90
20977;DHT22;10647;51.016;3.720;2022-10-22T17:06:19;19.50;99.90
20977;DHT22;10647;51.016;3.720;2022-10-22T17:08:47;19.50;99.90